createdAt,value
2017-01-19T00:00:06.015Z,19.48
2017-01-19T00:01:06.832Z,19.5
2017-01-19T00:02:06.460Z,19.46
2017-01-19T00:03:06.876Z,19.51
2017-01-19T00:04:06.109Z,19.54
2017-01-19T00:05:06.534Z,19.5
2017-01-19T00:06:06.166Z,19.51
2017-01-19T00:07:06.587Z,19.47
2017-01-19T00:08:06.615Z,19.43
2017-01-19T00:09:06.236Z,19.46
2017-01-19T00:10:07.056Z,19.43
2017-01-19T00:11:07.085Z,19.43
2017-01-19T00:12:06.701Z,19.48
2017-01-19T00:13:07.138Z,19.47
2017-01-19T00:14:07.159Z,19.43
2017-01-19T00:15:06.788Z,19.47
2017-01-19T00:16:06.420Z,19.44
2017-01-19T00:17:06.445Z,19.46
2017-01-19T00:18:06.862Z,19.46
2017-01-19T00:19:06.899Z,19.44
2017-01-19T00:20:07.314Z,19.44
2017-01-19T00:21:06.932Z,19.44
2017-01-19T00:22:06.963Z,19.33
2017-01-19T00:23:06.985Z,19.39
2017-01-19T00:24:07.025Z,19.33
2017-01-19T00:25:07.046Z,19.31
2017-01-19T00:26:07.071Z,19.26
2017-01-19T00:27:07.091Z,19.31
2017-01-19T00:28:07.123Z,19.37
2017-01-19T00:29:07.540Z,19.31
2017-01-19T00:30:06.776Z,19.32
2017-01-19T00:31:06.797Z,19.31
2017-01-19T00:32:07.222Z,19.26
2017-01-19T00:33:06.850Z,19.23
2017-01-19T00:34:07.267Z,19.26
2017-01-19T00:35:07.692Z,19.26
2017-01-19T00:36:07.325Z,19.23
2017-01-19T00:37:07.345Z,19.18
2017-01-19T00:38:07.769Z,19.21
2017-01-19T00:39:07.794Z,19.32
2017-01-19T00:40:07.421Z,19.23
2017-01-19T00:41:07.047Z,19.14
2017-01-19T00:42:07.472Z,19.14
2017-01-19T00:43:07.509Z,19.23
2017-01-19T00:44:07.517Z,19.21
2017-01-19T00:45:07.150Z,19.22
2017-01-19T00:46:07.971Z,19.11
2017-01-19T00:47:08.000Z,19.08
2017-01-19T00:48:07.620Z,19.21
2017-01-19T00:49:07.653Z,19.19
2017-01-19T00:50:07.290Z,19.13
2017-01-19T00:51:07.702Z,19.16
2017-01-19T00:52:07.726Z,19.14
2017-01-19T00:53:07.750Z,19.11
2017-01-19T00:54:07.784Z,19.07
2017-01-19T00:55:08.212Z,19.14
2017-01-19T00:56:07.826Z,19.11
2017-01-19T00:57:07.877Z,19.07
2017-01-19T00:58:07.874Z,19.07
2017-01-19T00:59:08.307Z,19.1
2017-01-19T01:00:07.523Z,19.04
2017-01-19T01:01:07.952Z,18.95
2017-01-19T01:02:07.975Z,19.06
2017-01-19T01:03:07.607Z,19.04
2017-01-19T01:04:07.627Z,18.9
2017-01-19T01:05:08.455Z,19.06
2017-01-19T01:06:07.671Z,18.87
2017-01-19T01:07:07.704Z,19.04
2017-01-19T01:08:08.128Z,18.94
2017-01-19T01:09:07.758Z,18.99
2017-01-19T01:10:08.178Z,18.91
2017-01-19T01:11:07.807Z,18.9
2017-01-19T01:12:08.232Z,18.92
2017-01-19T01:13:07.860Z,18.9
2017-01-19T01:14:08.276Z,18.88
2017-01-19T01:15:08.305Z,18.9
2017-01-19T01:16:07.934Z,18.87
2017-01-19T01:17:08.358Z,18.82
2017-01-19T01:18:07.983Z,18.85
2017-01-19T01:19:08.408Z,18.9
2017-01-19T01:20:08.037Z,18.8
2017-01-19T01:21:08.457Z,18.76
2017-01-19T01:22:08.878Z,18.78
2017-01-19T01:23:08.906Z,18.82
2017-01-19T01:24:08.531Z,18.73
2017-01-19T01:25:08.159Z,18.78
2017-01-19T01:26:08.184Z,18.8
2017-01-19T01:27:08.613Z,18.81
2017-01-19T01:28:08.225Z,18.75
2017-01-19T01:29:08.651Z,18.76
2017-01-19T01:30:09.079Z,18.8
2017-01-19T01:31:08.708Z,18.87
2017-01-19T01:32:09.124Z,18.76
2017-01-19T01:34:08.779Z,18.75
2017-01-19T01:35:09.206Z,18.69
2017-01-19T01:36:08.831Z,18.73
2017-01-19T01:37:08.846Z,18.73
2017-01-19T01:38:08.904Z,18.67
2017-01-19T01:39:09.305Z,18.67
2017-01-19T01:40:09.328Z,18.73
2017-01-19T01:41:09.358Z,18.75
2017-01-19T01:42:09.371Z,18.63
2017-01-19T01:43:09.400Z,18.75
2017-01-19T01:44:08.629Z,18.72
2017-01-19T01:45:09.057Z,18.65
2017-01-19T01:46:08.685Z,18.65
2017-01-19T01:47:09.532Z,18.66
2017-01-19T01:48:09.529Z,18.65
2017-01-19T01:49:09.558Z,18.67
2017-01-19T01:50:09.174Z,18.67
2017-01-19T01:51:08.813Z,18.65
2017-01-19T01:52:08.837Z,18.66
2017-01-19T01:53:09.270Z,18.58
2017-01-19T01:54:08.887Z,18.63
2017-01-19T01:55:09.708Z,18.62
2017-01-19T01:56:09.753Z,18.6
2017-01-19T01:57:09.386Z,18.58
2017-01-19T01:58:09.382Z,18.58
2017-01-19T01:59:09.016Z,18.62
2017-01-19T02:00:09.436Z,18.57
2017-01-19T02:01:09.070Z,18.57
2017-01-19T02:02:09.487Z,18.62
2017-01-19T02:03:09.119Z,18.62
2017-01-19T02:04:09.937Z,18.6
2017-01-19T02:05:09.958Z,18.66
2017-01-19T02:06:09.190Z,18.63
2017-01-19T02:07:09.611Z,18.48
2017-01-19T02:08:09.640Z,18.48
2017-01-19T02:09:09.657Z,18.52
2017-01-19T02:10:09.299Z,18.6
2017-01-19T02:11:09.319Z,18.48
2017-01-19T02:12:09.348Z,18.42
2017-01-19T02:13:09.766Z,18.48
2017-01-19T02:14:10.182Z,18.52
2017-01-19T02:15:09.814Z,18.44
2017-01-19T02:16:10.235Z,18.47
2017-01-19T02:17:09.864Z,18.48
2017-01-19T02:18:09.497Z,18.48
2017-01-19T02:19:10.311Z,18.5
2017-01-19T02:20:09.552Z,18.51
2017-01-19T02:21:09.965Z,18.5
2017-01-19T02:22:10.390Z,18.47
2017-01-19T02:23:10.023Z,18.44
2017-01-19T02:24:10.044Z,18.5
2017-01-19T02:25:10.057Z,18.42
2017-01-19T02:26:10.094Z,18.47
2017-01-19T02:27:10.512Z,18.41
2017-01-19T02:28:09.749Z,18.39
2017-01-19T02:29:10.170Z,18.45
2017-01-19T02:30:10.599Z,18.47
2017-01-19T02:31:10.615Z,18.39
2017-01-19T02:32:10.246Z,18.42
2017-01-19T02:33:10.261Z,18.42
2017-01-19T02:34:10.298Z,18.39
2017-01-19T02:35:10.720Z,18.41
2017-01-19T02:36:09.940Z,18.41
2017-01-19T02:37:10.365Z,18.37
2017-01-19T02:38:09.990Z,18.42
2017-01-19T02:39:10.816Z,18.37
2017-01-19T02:40:10.767Z,18.39
2017-01-19T02:41:10.469Z,18.39
2017-01-19T02:42:10.499Z,18.32
2017-01-19T02:43:10.120Z,18.33
2017-01-19T02:44:10.548Z,18.35
2017-01-19T02:45:10.573Z,18.41
2017-01-19T02:46:10.603Z,18.36
2017-01-19T02:47:11.028Z,18.36
2017-01-19T02:48:10.256Z,18.33
2017-01-19T02:49:10.265Z,18.27
2017-01-19T02:50:10.702Z,18.32
2017-01-19T02:51:10.719Z,18.37
2017-01-19T02:52:11.140Z,18.35
2017-01-19T02:53:10.377Z,18.29
2017-01-19T02:54:10.786Z,18.33
2017-01-19T02:55:11.218Z,18.35
2017-01-19T02:56:10.840Z,18.29
2017-01-19T02:57:10.472Z,18.35
2017-01-19T02:58:10.501Z,18.29
2017-01-19T02:59:10.930Z,18.26
2017-01-19T03:00:10.949Z,18.3
2017-01-19T03:01:10.973Z,18.25
2017-01-19T03:02:11.394Z,18.29
2017-01-19T03:03:11.434Z,18.26
2017-01-19T03:04:11.444Z,18.25
2017-01-19T03:05:11.104Z,18.3
2017-01-19T03:06:11.096Z,18.27
2017-01-19T03:07:11.126Z,18.26
2017-01-19T03:08:10.747Z,18.29
2017-01-19T03:09:10.776Z,18.2
2017-01-19T03:10:11.197Z,18.23
2017-01-19T03:11:11.226Z,18.25
2017-01-19T03:12:11.643Z,18.17
2017-01-19T03:13:11.267Z,18.18
2017-01-19T03:14:11.688Z,18.27
2017-01-19T03:15:10.920Z,18.2
2017-01-19T03:16:11.351Z,18.23
2017-01-19T03:17:11.371Z,18.18
2017-01-19T03:18:10.996Z,18.14
2017-01-19T03:19:11.803Z,18.2
2017-01-19T03:20:11.838Z,18.17
2017-01-19T03:21:11.862Z,18.15
2017-01-19T03:22:11.099Z,18.15
2017-01-19T03:23:11.912Z,18.25
2017-01-19T03:24:11.549Z,18.14
2017-01-19T03:25:11.174Z,18.17
2017-01-19T03:26:11.595Z,18.17
2017-01-19T03:27:11.620Z,18.18
2017-01-19T03:28:12.045Z,18.18
2017-01-19T03:29:11.673Z,18.12
2017-01-19T03:30:11.296Z,18.1
2017-01-19T03:31:11.346Z,18.21
2017-01-19T03:32:12.139Z,18.18
2017-01-19T03:33:11.369Z,18.11
2017-01-19T03:34:11.797Z,18.11
2017-01-19T03:35:12.215Z,18.1
2017-01-19T03:36:11.843Z,18.15
2017-01-19T03:37:11.868Z,18.12
2017-01-19T03:38:11.892Z,18.11
2017-01-19T03:39:11.917Z,18.07
2017-01-19T03:40:11.938Z,18.1
2017-01-19T03:41:11.962Z,18.1
2017-01-19T03:42:11.988Z,18.14
2017-01-19T03:43:12.410Z,18.1
2017-01-19T03:44:12.437Z,18.11
2017-01-19T03:45:12.461Z,18.11
2017-01-19T03:46:12.486Z,18.1
2017-01-19T03:47:11.715Z,18.03
2017-01-19T03:48:12.541Z,18.03
2017-01-19T03:49:12.169Z,18.07
2017-01-19T03:50:12.190Z,18.03
2017-01-19T03:51:12.207Z,17.97
2017-01-19T03:52:12.235Z,18.11
2017-01-19T03:53:12.668Z,17.97
2017-01-19T03:54:12.284Z,17.99
2017-01-19T03:55:11.918Z,18.02
2017-01-19T03:56:12.334Z,17.99
2017-01-19T03:57:12.763Z,18.11
2017-01-19T03:58:12.381Z,17.96
2017-01-19T03:59:12.413Z,18.1
2017-01-19T04:00:12.838Z,17.99
2017-01-19T04:01:12.062Z,18.11
2017-01-19T04:02:12.487Z,17.99
2017-01-19T04:03:12.512Z,18.03
2017-01-19T04:04:12.162Z,17.99
2017-01-19T04:05:12.165Z,17.96
2017-01-19T04:06:12.183Z,17.96
2017-01-19T04:07:13.011Z,17.95
2017-01-19T04:08:13.028Z,17.93
2017-01-19T04:09:12.269Z,17.93
2017-01-19T04:10:12.301Z,17.96
2017-01-19T04:11:12.318Z,17.96
2017-01-19T04:12:12.339Z,17.92
2017-01-19T04:13:12.759Z,17.92
2017-01-19T04:14:12.389Z,17.95
2017-01-19T04:15:13.202Z,17.95
2017-01-19T04:16:13.230Z,17.97
2017-01-19T04:17:12.859Z,17.96
2017-01-19T04:18:12.491Z,18
2017-01-19T04:19:12.509Z,18
2017-01-19T04:20:13.321Z,17.95
2017-01-19T04:21:13.354Z,17.96
2017-01-19T04:22:12.584Z,18
2017-01-19T04:23:13.003Z,17.89
2017-01-19T04:24:13.429Z,17.95
2017-01-19T04:25:13.455Z,18
2017-01-19T04:26:12.686Z,17.9
2017-01-19T04:27:13.099Z,17.84
2017-01-19T04:28:13.184Z,17.89
2017-01-19T04:29:12.756Z,17.79
2017-01-19T04:30:13.582Z,17.87
2017-01-19T04:31:13.206Z,17.87
2017-01-19T04:32:13.623Z,17.89
2017-01-19T04:33:12.848Z,17.84
2017-01-19T04:34:13.668Z,17.87
2017-01-19T04:35:12.917Z,17.9
2017-01-19T04:36:13.722Z,17.84
2017-01-19T04:37:12.951Z,17.81
2017-01-19T04:38:13.768Z,17.84
2017-01-19T04:39:13.792Z,17.84
2017-01-19T04:40:13.421Z,17.93
2017-01-19T04:41:13.458Z,17.92
2017-01-19T04:42:13.079Z,17.87
2017-01-19T04:43:13.104Z,17.86
2017-01-19T04:44:13.940Z,17.89
2017-01-19T04:45:13.545Z,17.84
2017-01-19T04:46:13.974Z,17.82
2017-01-19T04:47:13.991Z,17.89
2017-01-19T04:48:14.016Z,17.82
2017-01-19T04:49:13.653Z,17.78
2017-01-19T04:50:13.270Z,17.81
2017-01-19T04:51:13.298Z,17.78
2017-01-19T04:52:13.331Z,17.79
2017-01-19T04:53:13.344Z,17.82
2017-01-19T04:54:13.769Z,17.86
2017-01-19T04:55:14.189Z,17.86
2017-01-19T04:56:13.821Z,17.79
2017-01-19T04:57:13.442Z,17.78
2017-01-19T04:58:13.466Z,17.87
2017-01-19T04:59:13.495Z,17.79
2017-01-19T05:00:13.907Z,17.78
2017-01-19T05:01:13.940Z,17.77
2017-01-19T05:02:13.959Z,17.78
2017-01-19T05:03:14.380Z,17.84
2017-01-19T05:04:14.014Z,17.79
2017-01-19T05:05:13.636Z,17.77
2017-01-19T05:06:14.065Z,17.79
2017-01-19T05:07:14.078Z,17.74
2017-01-19T05:08:14.112Z,17.78
2017-01-19T05:09:13.735Z,17.79
2017-01-19T05:10:14.155Z,17.75
2017-01-19T05:11:14.179Z,17.72
2017-01-19T05:12:14.204Z,17.74
2017-01-19T05:13:14.228Z,17.77
2017-01-19T05:14:13.853Z,17.72
2017-01-19T05:15:14.672Z,17.71
2017-01-19T05:16:14.302Z,17.7
2017-01-19T05:17:14.722Z,17.72
2017-01-19T05:18:14.743Z,17.74
2017-01-19T05:19:14.375Z,17.68
2017-01-19T05:20:13.995Z,17.71
2017-01-19T05:21:14.416Z,17.71
2017-01-19T05:22:14.448Z,17.7
2017-01-19T05:23:14.472Z,17.71
2017-01-19T05:24:14.097Z,17.71
2017-01-19T05:25:14.911Z,17.71
2017-01-19T05:26:14.946Z,17.72
2017-01-19T05:27:14.982Z,17.74
2017-01-19T05:28:14.595Z,17.74
2017-01-19T05:29:14.607Z,17.68
2017-01-19T05:30:14.636Z,17.77
2017-01-19T05:31:14.269Z,17.78
2017-01-19T05:32:14.686Z,17.79
2017-01-19T05:33:15.105Z,17.82
2017-01-19T05:34:15.131Z,17.79
2017-01-19T05:35:14.764Z,17.92
2017-01-19T05:36:14.392Z,17.84
2017-01-19T05:37:14.808Z,17.92
2017-01-19T05:38:14.837Z,17.81
2017-01-19T05:39:14.458Z,17.82
2017-01-19T05:40:14.495Z,17.9
2017-01-19T05:41:15.311Z,18
2017-01-19T05:42:15.331Z,18
2017-01-19T05:43:14.961Z,17.9
2017-01-19T05:44:14.584Z,17.93
2017-01-19T05:45:14.613Z,17.96
2017-01-19T05:46:15.026Z,17.96
2017-01-19T05:47:15.055Z,17.95
2017-01-19T05:48:14.680Z,18.1
2017-01-19T05:49:15.104Z,17.99
2017-01-19T05:50:15.525Z,18.05
2017-01-19T05:51:15.154Z,18.02
2017-01-19T05:52:15.573Z,18.14
2017-01-19T05:53:14.800Z,18.14
2017-01-19T05:54:14.831Z,18.11
2017-01-19T05:55:14.852Z,18.11
2017-01-19T05:56:14.877Z,18.11
2017-01-19T05:57:15.703Z,18.15
2017-01-19T05:58:15.326Z,18.25
2017-01-19T05:59:15.350Z,18.12
2017-01-19T06:00:15.379Z,18.18
2017-01-19T06:01:15.395Z,18.14
2017-01-19T06:02:15.421Z,18.15
2017-01-19T06:03:15.037Z,18.21
2017-01-19T06:04:15.470Z,18.2
2017-01-19T06:05:15.523Z,18.26
2017-01-19T06:06:15.127Z,18.29
2017-01-19T06:07:15.940Z,18.27
2017-01-19T06:08:15.564Z,18.29
2017-01-19T06:09:15.593Z,18.29
2017-01-19T06:10:15.610Z,18.29
2017-01-19T06:11:15.643Z,18.33
2017-01-19T06:12:15.283Z,18.36
2017-01-19T06:13:15.291Z,18.39
2017-01-19T06:14:16.117Z,18.42
2017-01-19T06:15:15.741Z,18.47
2017-01-19T06:16:15.370Z,18.47
2017-01-19T06:17:16.207Z,18.45
2017-01-19T06:18:15.818Z,18.47
2017-01-19T06:19:15.440Z,18.54
2017-01-19T06:20:15.465Z,18.48
2017-01-19T06:21:15.494Z,18.45
2017-01-19T06:22:15.514Z,18.45
2017-01-19T06:23:15.548Z,18.48
2017-01-19T06:24:16.361Z,18.48
2017-01-19T06:25:15.983Z,18.62
2017-01-19T06:26:16.031Z,18.6
2017-01-19T06:27:16.038Z,18.62
2017-01-19T06:28:16.463Z,18.57
2017-01-19T06:29:15.692Z,18.65
2017-01-19T06:30:16.113Z,18.66
2017-01-19T06:31:15.742Z,18.62
2017-01-19T06:32:16.552Z,18.66
2017-01-19T06:33:16.191Z,18.65
2017-01-19T06:34:15.816Z,18.73
2017-01-19T06:35:15.836Z,18.72
2017-01-19T06:36:15.865Z,18.7
2017-01-19T06:37:16.290Z,18.73
2017-01-19T06:38:16.302Z,18.78
2017-01-19T06:39:16.340Z,18.81
2017-01-19T06:40:16.360Z,18.81
2017-01-19T06:41:16.385Z,18.82
2017-01-19T06:42:16.413Z,18.76
2017-01-19T06:43:16.438Z,18.78
2017-01-19T06:44:16.451Z,18.87
2017-01-19T06:45:16.488Z,18.81
2017-01-19T06:46:16.116Z,18.82
2017-01-19T06:47:16.925Z,18.81
2017-01-19T06:48:16.554Z,18.76
2017-01-19T06:49:16.583Z,18.82
2017-01-19T06:50:17.003Z,18.76
2017-01-19T06:51:16.628Z,18.84
2017-01-19T06:52:16.652Z,18.8
2017-01-19T06:53:17.077Z,18.81
2017-01-19T06:54:16.310Z,18.9
2017-01-19T06:55:16.335Z,18.82
2017-01-19T06:56:16.754Z,18.82
2017-01-19T06:57:17.177Z,18.85
2017-01-19T06:58:16.411Z,18.87
2017-01-19T06:59:16.830Z,18.92
2017-01-19T07:00:17.258Z,18.81
2017-01-19T07:01:16.878Z,18.92
2017-01-19T07:02:16.508Z,18.84
2017-01-19T07:03:16.936Z,18.84
2017-01-19T07:04:16.557Z,18.92
2017-01-19T07:05:17.381Z,18.9
2017-01-19T07:06:16.607Z,18.85
2017-01-19T07:07:17.033Z,18.87
2017-01-19T07:08:17.460Z,18.92
2017-01-19T07:09:17.477Z,18.9
2017-01-19T07:10:17.501Z,18.9
2017-01-19T07:11:16.730Z,18.88
2017-01-19T07:12:16.759Z,18.82
2017-01-19T07:13:16.776Z,18.9
2017-01-19T07:14:17.192Z,18.84
2017-01-19T07:15:17.229Z,18.85
2017-01-19T07:16:17.258Z,18.82
2017-01-19T07:17:17.675Z,18.87
2017-01-19T07:18:17.698Z,18.87
2017-01-19T07:19:17.327Z,18.8
2017-01-19T07:20:17.349Z,18.8
2017-01-19T07:21:17.382Z,18.78
2017-01-19T07:22:17.403Z,18.82
2017-01-19T07:23:17.427Z,18.8
2017-01-19T07:24:17.484Z,18.8
2017-01-19T07:25:17.085Z,18.8
2017-01-19T07:26:17.505Z,18.76
2017-01-19T07:27:17.922Z,18.88
2017-01-19T07:28:17.950Z,18.76
2017-01-19T07:29:17.575Z,18.76
2017-01-19T07:30:17.620Z,18.82
2017-01-19T07:31:18.029Z,18.81
2017-01-19T07:32:17.257Z,18.81
2017-01-19T07:33:17.678Z,18.76
2017-01-19T07:34:17.709Z,18.76
2017-01-19T07:35:18.124Z,18.81
2017-01-19T07:36:18.147Z,18.76
2017-01-19T07:37:17.776Z,18.82
2017-01-19T07:38:17.401Z,18.8
2017-01-19T07:39:17.830Z,18.8
2017-01-19T07:40:17.850Z,18.75
2017-01-19T07:41:18.266Z,18.75
2017-01-19T07:42:17.508Z,18.81
2017-01-19T07:43:18.328Z,18.78
2017-01-19T07:44:18.344Z,18.78
2017-01-19T07:45:17.976Z,18.78
2017-01-19T07:46:17.605Z,18.8
2017-01-19T07:47:17.629Z,18.7
2017-01-19T07:48:18.050Z,18.7
2017-01-19T07:49:18.079Z,18.73
2017-01-19T07:50:18.104Z,18.69
2017-01-19T07:51:18.512Z,18.73
2017-01-19T07:52:18.541Z,18.7
2017-01-19T07:53:18.181Z,18.72
2017-01-19T07:54:17.798Z,18.73
2017-01-19T07:55:17.827Z,18.72
2017-01-19T07:56:18.247Z,18.69
2017-01-19T07:57:18.272Z,18.7
2017-01-19T07:58:18.297Z,18.73
2017-01-19T07:59:18.318Z,18.67
2017-01-19T08:00:18.742Z,18.75
2017-01-19T08:01:18.374Z,18.69
2017-01-19T08:02:18.399Z,18.66
2017-01-19T08:03:18.424Z,18.6
2017-01-19T08:04:18.461Z,18.66
2017-01-19T08:05:18.077Z,18.63
2017-01-19T08:06:18.498Z,18.7
2017-01-19T08:07:18.127Z,18.7
2017-01-19T08:08:18.544Z,18.62
2017-01-19T08:09:18.574Z,18.62
2017-01-19T08:10:18.601Z,18.63
2017-01-19T08:11:19.025Z,18.58
2017-01-19T08:12:18.646Z,18.63
2017-01-19T08:13:19.070Z,18.62
2017-01-19T08:14:18.692Z,18.66
2017-01-19T08:15:18.720Z,18.65
2017-01-19T08:16:18.357Z,18.6
2017-01-19T08:17:18.770Z,18.63
2017-01-19T08:18:19.198Z,18.62
2017-01-19T08:19:19.216Z,18.6
2017-01-19T08:20:18.844Z,18.62
2017-01-19T08:21:18.468Z,18.51
2017-01-19T08:22:18.889Z,18.51
2017-01-19T08:23:18.521Z,18.58
2017-01-19T08:24:18.946Z,18.47
2017-01-19T08:25:19.395Z,18.48
2017-01-19T08:26:18.983Z,18.48
2017-01-19T08:27:18.624Z,18.51
2017-01-19T08:28:18.649Z,18.48
2017-01-19T08:29:18.674Z,18.52
2017-01-19T08:30:19.106Z,18.47
2017-01-19T08:31:18.723Z,18.48
2017-01-19T08:32:19.527Z,18.57
2017-01-19T08:33:19.561Z,18.63
2017-01-19T08:34:19.589Z,18.72
2017-01-19T08:35:19.221Z,18.75
2017-01-19T08:36:19.647Z,18.72
2017-01-19T08:37:19.667Z,18.81
2017-01-19T08:38:19.288Z,18.81
2017-01-19T08:39:19.709Z,18.91
2017-01-19T08:40:19.346Z,18.82
2017-01-19T08:41:18.974Z,18.9
2017-01-19T08:42:19.788Z,18.87
2017-01-19T08:43:19.418Z,18.84
2017-01-19T08:44:19.841Z,18.88
2017-01-19T08:45:19.469Z,18.88
2017-01-19T08:46:19.490Z,18.92
2017-01-19T08:47:19.919Z,18.94
2017-01-19T08:48:19.143Z,18.92
2017-01-19T08:49:19.568Z,18.91
2017-01-19T08:50:19.589Z,18.95
2017-01-19T08:51:19.217Z,19.02
2017-01-19T08:52:20.038Z,18.88
2017-01-19T08:53:19.667Z,19.02
2017-01-19T08:54:19.691Z,18.99
2017-01-19T08:55:19.713Z,19.04
2017-01-19T08:56:19.742Z,19.04
2017-01-19T08:57:20.166Z,19.02
2017-01-19T08:58:19.787Z,19.13
2017-01-19T08:59:19.423Z,19.04
2017-01-19T09:00:19.440Z,19.07
2017-01-19T09:01:19.864Z,19.04
2017-01-19T09:02:20.282Z,19.14
2017-01-19T09:03:19.518Z,19.08
2017-01-19T09:04:19.547Z,19.16
2017-01-19T09:05:19.967Z,19.08
2017-01-19T09:06:20.400Z,19.07
2017-01-19T09:07:19.648Z,19.07
2017-01-19T09:08:20.037Z,19.08
2017-01-19T09:09:20.470Z,19.18
2017-01-19T09:10:20.095Z,19.1
2017-01-19T09:11:20.120Z,19.11
2017-01-19T09:12:20.140Z,19.06
2017-01-19T09:13:20.559Z,19.21
2017-01-19T09:14:20.586Z,19.11
2017-01-19T09:15:20.606Z,19.11
2017-01-19T09:16:19.843Z,19.18
2017-01-19T09:17:20.264Z,19.22
2017-01-19T09:18:20.681Z,19.26
2017-01-19T09:19:20.314Z,19.21
2017-01-19T09:20:20.734Z,19.11
2017-01-19T09:21:19.971Z,19.14
2017-01-19T09:22:19.995Z,19.14
2017-01-19T09:23:20.816Z,19.16
2017-01-19T09:24:20.040Z,19.22
2017-01-19T09:25:20.852Z,19.29
2017-01-19T09:26:20.889Z,19.19
2017-01-19T09:27:20.514Z,19.16
2017-01-19T09:28:20.930Z,19.23
2017-01-19T09:29:20.964Z,19.31
2017-01-19T09:30:20.988Z,19.29
2017-01-19T09:31:21.040Z,19.29
2017-01-19T09:32:20.643Z,19.29
2017-01-19T09:33:20.680Z,19.28
2017-01-19T09:34:20.714Z,19.33
2017-01-19T09:35:20.711Z,19.41
2017-01-19T09:36:21.130Z,19.41
2017-01-19T09:37:21.160Z,19.43
2017-01-19T09:38:20.789Z,19.46
2017-01-19T09:39:20.818Z,19.48
2017-01-19T09:40:20.446Z,19.44
2017-01-19T09:41:20.466Z,19.48
2017-01-19T09:42:20.896Z,19.5
2017-01-19T09:43:20.916Z,19.51
2017-01-19T09:44:20.941Z,19.65
2017-01-19T09:45:20.570Z,19.59
2017-01-19T09:46:21.382Z,19.63
2017-01-19T09:47:21.018Z,19.61
2017-01-19T09:48:21.043Z,19.69
2017-01-19T09:49:21.068Z,19.65
2017-01-19T09:50:21.090Z,19.69
2017-01-19T09:51:21.113Z,19.71
2017-01-19T09:52:21.138Z,19.73
2017-01-19T09:53:21.566Z,19.73
2017-01-19T09:54:21.192Z,19.69
2017-01-19T09:55:21.220Z,19.76
2017-01-19T09:56:21.633Z,19.65
2017-01-19T09:57:20.870Z,19.77
2017-01-19T09:58:20.890Z,19.66
2017-01-19T09:59:21.311Z,19.71
2017-01-19T10:00:20.951Z,19.77
2017-01-19T10:01:21.757Z,19.62
2017-01-19T10:02:21.786Z,19.69
2017-01-19T10:03:21.422Z,19.74
2017-01-19T10:04:21.055Z,19.65
2017-01-19T10:05:21.463Z,19.63
2017-01-19T10:06:21.104Z,19.61
2017-01-19T10:07:21.917Z,19.61
2017-01-19T10:08:21.542Z,19.62
2017-01-19T10:09:21.963Z,19.61
2017-01-19T10:10:21.596Z,19.54
2017-01-19T10:11:22.016Z,19.55
2017-01-19T10:12:21.249Z,19.48
2017-01-19T10:13:21.277Z,19.46
2017-01-19T10:14:21.305Z,19.46
2017-01-19T10:15:22.123Z,19.48
2017-01-19T10:16:21.752Z,19.47
2017-01-19T10:17:22.176Z,19.47
2017-01-19T10:18:22.197Z,19.43
2017-01-19T10:19:21.826Z,19.44
2017-01-19T10:20:21.850Z,19.41
2017-01-19T10:21:21.476Z,19.43
2017-01-19T10:22:21.504Z,19.36
2017-01-19T10:23:22.333Z,19.37
2017-01-19T10:24:22.353Z,19.41
2017-01-19T10:25:22.382Z,19.37
2017-01-19T10:26:22.399Z,19.33
2017-01-19T10:27:22.415Z,19.31
2017-01-19T10:28:22.061Z,19.36
2017-01-19T10:29:22.485Z,19.36
2017-01-19T10:30:21.710Z,19.37
2017-01-19T10:31:22.131Z,19.36
2017-01-19T10:32:22.551Z,19.36
2017-01-19T10:33:22.176Z,19.32
2017-01-19T10:34:22.597Z,19.36
2017-01-19T10:35:22.229Z,19.41
2017-01-19T10:36:22.254Z,19.4
2017-01-19T10:37:21.885Z,19.32
2017-01-19T10:38:22.708Z,19.41
2017-01-19T10:39:22.337Z,19.36
2017-01-19T10:40:21.961Z,19.41
2017-01-19T10:41:22.382Z,19.43
2017-01-19T10:42:22.803Z,19.43
2017-01-19T10:43:22.843Z,19.41
2017-01-19T10:44:22.068Z,19.46
2017-01-19T10:45:22.484Z,19.48
2017-01-19T10:46:22.105Z,19.43
2017-01-19T10:47:22.926Z,19.47
2017-01-19T10:48:22.563Z,19.43
2017-01-19T10:49:22.588Z,19.44
2017-01-19T10:50:22.610Z,19.46
2017-01-19T10:51:22.637Z,19.47
2017-01-19T10:52:22.666Z,19.47
2017-01-19T10:53:22.683Z,19.5
2017-01-19T10:54:22.320Z,19.46
2017-01-19T10:55:22.752Z,19.51
2017-01-19T10:56:22.770Z,19.46
2017-01-19T10:57:22.790Z,19.54
2017-01-19T10:58:23.210Z,19.44
2017-01-19T10:59:22.444Z,19.5
2017-01-19T11:00:22.872Z,19.48
2017-01-19T11:01:22.497Z,19.39
2017-01-19T11:02:22.918Z,19.4
2017-01-19T11:03:22.546Z,19.43
2017-01-19T11:04:22.975Z,19.41
2017-01-19T11:05:23.388Z,19.41
2017-01-19T11:06:23.019Z,19.41
2017-01-19T11:07:23.061Z,19.46
2017-01-19T11:08:22.674Z,19.41
2017-01-19T11:09:23.099Z,19.46
2017-01-19T11:10:22.728Z,19.48
2017-01-19T11:11:23.165Z,19.37
2017-01-19T11:12:23.177Z,19.43
2017-01-19T11:13:23.213Z,19.4
2017-01-19T11:14:23.221Z,19.36
2017-01-19T11:15:22.854Z,19.43
2017-01-19T11:16:23.280Z,19.33
2017-01-19T11:17:23.301Z,19.26
2017-01-19T11:18:23.721Z,19.37
2017-01-19T11:19:22.959Z,19.39
2017-01-19T11:20:23.375Z,19.29
2017-01-19T11:21:23.817Z,19.39
2017-01-19T11:22:23.025Z,19.37
2017-01-19T11:23:23.453Z,19.4
2017-01-19T11:24:23.479Z,19.39
2017-01-19T11:25:23.513Z,19.41
2017-01-19T11:26:23.532Z,19.32
2017-01-19T11:27:23.555Z,19.44
2017-01-19T11:28:23.978Z,19.39
2017-01-19T11:29:24.007Z,19.47
2017-01-19T11:30:24.032Z,19.43
2017-01-19T11:31:23.664Z,19.43
2017-01-19T11:32:23.681Z,19.37
2017-01-19T11:33:23.706Z,19.44
2017-01-19T11:34:24.142Z,19.44
2017-01-19T11:35:24.163Z,19.44
2017-01-19T11:36:24.184Z,19.47
2017-01-19T11:37:24.209Z,19.43
2017-01-19T11:38:23.834Z,19.47
2017-01-19T11:39:23.462Z,19.58
2017-01-19T11:40:23.491Z,19.58
2017-01-19T11:41:23.528Z,19.5
2017-01-19T11:42:23.941Z,19.55
2017-01-19T11:43:23.578Z,19.48
2017-01-19T11:44:24.415Z,19.51
2017-01-19T11:45:24.424Z,19.56
2017-01-19T11:46:24.044Z,19.54
2017-01-19T11:47:23.681Z,19.61
2017-01-19T11:48:24.498Z,19.63
2017-01-19T11:49:24.118Z,19.66
2017-01-19T11:50:24.147Z,19.62
2017-01-19T11:51:23.804Z,19.59
2017-01-19T11:52:23.805Z,19.68
2017-01-19T11:53:24.630Z,19.61
2017-01-19T11:54:23.857Z,19.63
2017-01-19T11:55:24.666Z,19.69
2017-01-19T11:56:24.300Z,19.63
2017-01-19T11:57:24.328Z,19.74
2017-01-19T11:58:24.354Z,19.68
2017-01-19T11:59:24.786Z,19.69
2017-01-19T12:00:24.799Z,19.63
2017-01-19T12:01:24.853Z,19.71
2017-01-19T12:02:24.849Z,19.62
2017-01-19T12:03:24.085Z,19.66
2017-01-19T12:04:24.114Z,19.65
2017-01-19T12:05:24.943Z,19.66
2017-01-19T12:06:24.168Z,19.63
2017-01-19T12:07:24.181Z,19.69
2017-01-19T12:08:24.217Z,19.66
2017-01-19T12:09:25.035Z,19.61
2017-01-19T12:10:24.663Z,19.63
2017-01-19T12:11:24.700Z,19.63
2017-01-19T12:12:24.708Z,19.61
2017-01-19T12:13:24.353Z,19.58
2017-01-19T12:14:24.762Z,19.51
2017-01-19T12:15:24.795Z,19.59
2017-01-19T12:16:24.816Z,19.54
2017-01-19T12:17:24.853Z,19.51
2017-01-19T12:18:24.869Z,19.5
2017-01-19T12:19:25.303Z,19.5
2017-01-19T12:20:24.919Z,19.54
2017-01-19T12:21:24.952Z,19.51
2017-01-19T12:22:24.577Z,19.51
2017-01-19T12:23:25.405Z,19.51
2017-01-19T12:24:25.019Z,19.54
2017-01-19T12:25:25.051Z,19.44
2017-01-19T12:26:25.480Z,19.47
2017-01-19T12:27:25.104Z,19.48
2017-01-19T12:28:25.535Z,19.47
2017-01-19T12:29:25.146Z,19.46
2017-01-19T12:30:25.182Z,19.39
2017-01-19T12:31:25.612Z,19.4
2017-01-19T12:32:24.832Z,19.43
2017-01-19T12:33:25.260Z,19.43
2017-01-19T12:34:25.301Z,19.28
2017-01-19T12:35:25.309Z,19.33
2017-01-19T12:36:25.722Z,19.39
2017-01-19T12:37:25.353Z,19.43
2017-01-19T12:38:24.984Z,19.36
2017-01-19T12:39:25.017Z,19.36
2017-01-19T12:40:25.433Z,19.29
2017-01-19T12:41:25.849Z,19.32
2017-01-19T12:42:25.477Z,19.36
2017-01-19T12:43:25.906Z,19.25
2017-01-19T12:44:25.526Z,19.21
2017-01-19T12:45:25.167Z,19.25
2017-01-19T12:46:25.583Z,19.25
2017-01-19T12:47:25.621Z,19.21
2017-01-19T12:48:25.633Z,19.26
2017-01-19T12:49:25.258Z,19.22
2017-01-19T12:50:25.680Z,19.22
2017-01-19T12:51:25.311Z,19.21
2017-01-19T12:52:25.740Z,19.21
2017-01-19T12:53:26.165Z,19.21
2017-01-19T12:54:25.793Z,19.18
2017-01-19T12:55:25.806Z,19.14
2017-01-19T12:56:25.843Z,19.22